航空気象通報

ウインドサーファーのための航空気象通報による風予報です。

5/16-5/18の航空気象通報

2017年05月17日 00時11分45秒 | TAF
羽田空港
TAF RJTT 161111Z 1612/1718 20006KT 9999 FEW010 BKN020
BECMG 1615/1617 35010KT
TEMPO 1618/1621 FEW005 BKN008
BECMG 1703/1706 05012KT
日本時間16日21-24時:200度から6ノットの風
17日00-02時:風が変化
02-12時:350度から10ノットの風
12-15時:風が変化
15時-18日03時:050度から12ノットの風


静岡空港
TAF RJNS 161105Z 1612/1718 28004KT 9999 FEW030
BECMG 1622/1700 14006KT
BECMG 1712/1715 32004KT
日本時間16日21時-17日07時:280度から4ノットの風
07-09時:風が変化
09-21時:140度から6ノットの風
21-24時:風が変化
18日00-03時:320度から4ノットの風


福岡空港
TAF RJFF 161108Z 1612/1718 31004KT 9999 FEW015 SCT020
BECMG 1613/1615 16005KT
BECMG 1621/1623 33011KT
BECMG 1712/1715 16004KT
日本時間16日21-22時:310度から4ノットの風
22-24時:風が変化
17日00-06時:160度から5ノットの風
06-08時:風が変化
08-21時:330度から11ノットの風
21-24時:風が変化
18日00-03時:160度から4ノットの風


那覇空港
TAF ROAH 161107Z 1612/1718 05006KT 9999 FEW010 SCT020 BKN040
日本時間16日21時-18日03時:050度から6ノットの風


石垣空港
TAF ROIG 161110Z 1612/1718 03011KT 9999 FEW008 SCT015 BKN030
TEMPO 1612/1615 FEW005 BKN008
日本時間16日21時-18日03時:030度から11ノットの風


マウイのカフルイ空港
PHOG 161122Z 1612/1712 05010G20KT P6SM VCSH FEW025 SCT050
FM161900 06020G28KT P6SM FEW030 SCT050
FM170500 06012G20KT P6SM FEW030 SCT050
FM171000 06010KT P6SM FEW030 SCT050
ハワイ時間16日02-09時:050度から10ノット、突風20ノット
09-19時:060度から20ノット、突風28ノット
19-24時:060度から12ノット、突風20ノット
17日00-02時:060度から10ノットの風


サイパン空港
TAF PGSN 161129Z 1612/1712 10010KT P6SM VCSH SCT020 SCT040
FM162300 10014G20KT P6SM VCSH SCT020 SCT050
マリアナ時間16日22時-17日08時:100度から10ノットの風
08-22時:100度から14ノット、突風20ノット
ジャンル:
お天気
コメント   この記事についてブログを書く
この記事をはてなブックマークに追加
« 5/15-5/17の航空気象通報 | トップ | 5/17-5/19の航空気象通報 »
最近の画像もっと見る

コメントを投稿

ブログ作成者から承認されるまでコメントは反映されません。

コメント利用規約に同意の上コメント投稿を行ってください。

数字4桁を入力し、投稿ボタンを押してください。

あわせて読む

トラックバック

この記事のトラックバック  Ping-URL
ブログ作成者から承認されるまでトラックバックは反映されません。
  • 30日以上前の記事に対するトラックバックは受け取らないよう設定されております。
  • 送信元の記事内容が半角英数のみのトラックバックは受け取らないよう設定されております。
  • このブログへのリンクがない記事からのトラックバックは受け取らないよう設定されております。
  • ※ブログ管理者のみ、編集画面で設定の変更が可能です。